sensor_id;sensor_type;location;lat;lon;timestamp;pressure;altitude;pressure_sealevel;temperature
73685;BMP280;61985;51.070;14.064;2023-07-31T00:21:41;98415.03;;;13.78
73685;BMP280;61985;51.070;14.064;2023-07-31T00:24:06;98415.66;;;13.73
73685;BMP280;61985;51.070;14.064;2023-07-31T00:26:31;98410.53;;;13.75
73685;BMP280;61985;51.070;14.064;2023-07-31T00:28:57;98410.53;;;13.65
73685;BMP280;61985;51.070;14.064;2023-07-31T00:31:22;98403.78;;;13.61
73685;BMP280;61985;51.070;14.064;2023-07-31T00:33:48;98414.75;;;13.48
73685;BMP280;61985;51.070;14.064;2023-07-31T00:36:13;98400.91;;;13.46
73685;BMP280;61985;51.070;14.064;2023-07-31T00:38:38;98410.66;;;13.34
73685;BMP280;61985;51.070;14.064;2023-07-31T00:41:03;98413.81;;;13.33
73685;BMP280;61985;51.070;14.064;2023-07-31T00:43:29;98417.13;;;13.27
73685;BMP280;61985;51.070;14.064;2023-07-31T00:45:55;98408.56;;;13.29
73685;BMP280;61985;51.070;14.064;2023-07-31T00:48:20;98406.75;;;13.26
73685;BMP280;61985;51.070;14.064;2023-07-31T00:50:46;98400.47;;;13.29
73685;BMP280;61985;51.070;14.064;2023-07-31T00:53:12;98398.19;;;13.27
73685;BMP280;61985;51.070;14.064;2023-07-31T00:55:38;98399.34;;;13.17
73685;BMP280;61985;51.070;14.064;2023-07-31T00:58:03;98396.38;;;13.15
73685;BMP280;61985;51.070;14.064;2023-07-31T01:00:32;98400.69;;;13.13
73685;BMP280;61985;51.070;14.064;2023-07-31T01:02:58;98392.63;;;13.22
73685;BMP280;61985;51.070;14.064;2023-07-31T01:05:43;98398.91;;;13.19
73685;BMP280;61985;51.070;14.064;2023-07-31T01:08:20;98395.47;;;13.18
73685;BMP280;61985;51.070;14.064;2023-07-31T01:10:51;98398.00;;;13.13
73685;BMP280;61985;51.070;14.064;2023-07-31T01:13:20;98388.84;;;13.19
73685;BMP280;61985;51.070;14.064;2023-07-31T01:15:46;98389.47;;;13.23
73685;BMP280;61985;51.070;14.064;2023-07-31T01:18:11;98384.06;;;13.23
73685;BMP280;61985;51.070;14.064;2023-07-31T01:20:37;98378.63;;;13.14
73685;BMP280;61985;51.070;14.064;2023-07-31T01:23:19;98374.72;;;13.15
73685;BMP280;61985;51.070;14.064;2023-07-31T01:25:56;98382.41;;;13.17
73685;BMP280;61985;51.070;14.064;2023-07-31T01:28:55;98370.63;;;13.11
73685;BMP280;61985;51.070;14.064;2023-07-31T01:31:23;98370.81;;;13.16
73685;BMP280;61985;51.070;14.064;2023-07-31T01:33:50;98360.75;;;13.17
73685;BMP280;61985;51.070;14.064;2023-07-31T01:36:17;98363.44;;;13.07
73685;BMP280;61985;51.070;14.064;2023-07-31T01:38:43;98365.53;;;13.13
73685;BMP280;61985;51.070;14.064;2023-07-31T01:41:08;98359.97;;;13.16
73685;BMP280;61985;51.070;14.064;2023-07-31T01:43:33;98360.59;;;13.20
73685;BMP280;61985;51.070;14.064;2023-07-31T01:45:59;98365.41;;;13.16
73685;BMP280;61985;51.070;14.064;2023-07-31T01:48:24;98369.91;;;13.19
73685;BMP280;61985;51.070;14.064;2023-07-31T01:50:50;98362.38;;;13.14
73685;BMP280;61985;51.070;14.064;2023-07-31T01:53:15;98360.44;;;13.24
73685;BMP280;61985;51.070;14.064;2023-07-31T01:55:40;98355.19;;;13.30
73685;BMP280;61985;51.070;14.064;2023-07-31T01:58:06;98360.88;;;13.32
73685;BMP280;61985;51.070;14.064;2023-07-31T02:00:31;98345.56;;;13.29
73685;BMP280;61985;51.070;14.064;2023-07-31T02:02:56;98352.31;;;13.33
73685;BMP280;61985;51.070;14.064;2023-07-31T02:05:22;98345.00;;;13.43
73685;BMP280;61985;51.070;14.064;2023-07-31T02:07:47;98338.03;;;13.51
73685;BMP280;61985;51.070;14.064;2023-07-31T02:10:13;98353.09;;;13.52
73685;BMP280;61985;51.070;14.064;2023-07-31T02:12:38;98348.88;;;13.60
73685;BMP280;61985;51.070;14.064;2023-07-31T02:15:04;98350.22;;;13.74
73685;BMP280;61985;51.070;14.064;2023-07-31T02:17:32;98347.06;;;13.76
73685;BMP280;61985;51.070;14.064;2023-07-31T02:19:58;98352.50;;;13.76
73685;BMP280;61985;51.070;14.064;2023-07-31T02:22:23;98346.91;;;13.79
73685;BMP280;61985;51.070;14.064;2023-07-31T02:24:49;98355.78;;;13.80
73685;BMP280;61985;51.070;14.064;2023-07-31T02:27:14;98350.50;;;13.95
73685;BMP280;61985;51.070;14.064;2023-07-31T02:29:39;98348.53;;;14.04
73685;BMP280;61985;51.070;14.064;2023-07-31T02:32:05;98344.59;;;14.05
73685;BMP280;61985;51.070;14.064;2023-07-31T02:34:30;98345.03;;;14.04
73685;BMP280;61985;51.070;14.064;2023-07-31T02:36:56;98342.78;;;14.12
73685;BMP280;61985;51.070;14.064;2023-07-31T02:39:21;98337.66;;;14.14
73685;BMP280;61985;51.070;14.064;2023-07-31T02:41:47;98342.28;;;14.22
73685;BMP280;61985;51.070;14.064;2023-07-31T02:44:12;98342.69;;;14.30
73685;BMP280;61985;51.070;14.064;2023-07-31T02:46:39;98340.31;;;14.32
73685;BMP280;61985;51.070;14.064;2023-07-31T02:49:05;98331.78;;;14.15
73685;BMP280;61985;51.070;14.064;2023-07-31T02:51:30;98334.59;;;14.21
73685;BMP280;61985;51.070;14.064;2023-07-31T02:53:56;98329.03;;;14.24
73685;BMP280;61985;51.070;14.064;2023-07-31T02:56:21;98338.97;;;14.27
73685;BMP280;61985;51.070;14.064;2023-07-31T02:58:46;98331.88;;;14.30
73685;BMP280;61985;51.070;14.064;2023-07-31T03:01:12;98335.16;;;14.34
73685;BMP280;61985;51.070;14.064;2023-07-31T03:03:38;98340.31;;;14.32
73685;BMP280;61985;51.070;14.064;2023-07-31T03:06:03;98340.31;;;14.32
73685;BMP280;61985;51.070;14.064;2023-07-31T03:08:28;98337.59;;;14.32
73685;BMP280;61985;51.070;14.064;2023-07-31T03:10:54;98337.13;;;14.34
73685;BMP280;61985;51.070;14.064;2023-07-31T03:13:19;98338.81;;;14.31
73685;BMP280;61985;51.070;14.064;2023-07-31T03:15:48;98337.88;;;14.34
73685;BMP280;61985;51.070;14.064;2023-07-31T03:18:13;98332.44;;;14.34
73685;BMP280;61985;51.070;14.064;2023-07-31T03:20:42;98336.66;;;14.44
73685;BMP280;61985;51.070;14.064;2023-07-31T03:23:09;98324.72;;;14.51
73685;BMP280;61985;51.070;14.064;2023-07-31T03:25:34;98325.72;;;14.54
73685;BMP280;61985;51.070;14.064;2023-07-31T03:27:59;98321.22;;;14.51
73685;BMP280;61985;51.070;14.064;2023-07-31T03:30:25;98328.44;;;14.54
73685;BMP280;61985;51.070;14.064;2023-07-31T03:32:50;98335.94;;;14.59
73685;BMP280;61985;51.070;14.064;2023-07-31T03:35:16;98328.31;;;14.57
73685;BMP280;61985;51.070;14.064;2023-07-31T03:37:41;98332.72;;;14.70
73685;BMP280;61985;51.070;14.064;2023-07-31T03:40:07;98329.22;;;14.78
73685;BMP280;61985;51.070;14.064;2023-07-31T03:42:32;98339.53;;;14.89
73685;BMP280;61985;51.070;14.064;2023-07-31T03:44:58;98325.97;;;14.89
73685;BMP280;61985;51.070;14.064;2023-07-31T03:47:23;98336.69;;;14.93
73685;BMP280;61985;51.070;14.064;2023-07-31T03:49:48;98331.59;;;15.10
73685;BMP280;61985;51.070;14.064;2023-07-31T03:52:14;98340.94;;;15.08
73685;BMP280;61985;51.070;14.064;2023-07-31T03:54:39;98338.41;;;15.05
73685;BMP280;61985;51.070;14.064;2023-07-31T03:57:04;98341.22;;;15.11
73685;BMP280;61985;51.070;14.064;2023-07-31T03:59:30;98335.16;;;15.16
73685;BMP280;61985;51.070;14.064;2023-07-31T04:01:55;98330.19;;;15.14
73685;BMP280;61985;51.070;14.064;2023-07-31T04:04:20;98337.09;;;15.15
73685;BMP280;61985;51.070;14.064;2023-07-31T04:06:46;98338.00;;;15.12
73685;BMP280;61985;51.070;14.064;2023-07-31T04:09:11;98325.06;;;15.16
73685;BMP280;61985;51.070;14.064;2023-07-31T04:11:36;98329.88;;;15.12
73685;BMP280;61985;51.070;14.064;2023-07-31T04:14:02;98333.34;;;15.13
73685;BMP280;61985;51.070;14.064;2023-07-31T04:16:27;98333.06;;;15.11
73685;BMP280;61985;51.070;14.064;2023-07-31T04:18:52;98343.94;;;15.11
73685;BMP280;61985;51.070;14.064;2023-07-31T04:21:18;98339.88;;;15.06
73685;BMP280;61985;51.070;14.064;2023-07-31T04:23:43;98340.81;;;15.03
73685;BMP280;61985;51.070;14.064;2023-07-31T04:26:08;98341.72;;;15.00
73685;BMP280;61985;51.070;14.064;2023-07-31T04:28:34;98341.91;;;14.96
73685;BMP280;61985;51.070;14.064;2023-07-31T04:30:59;98332.72;;;14.94
73685;BMP280;61985;51.070;14.064;2023-07-31T04:33:24;98334.59;;;14.87
73685;BMP280;61985;51.070;14.064;2023-07-31T04:35:51;98332.03;;;14.84
73685;BMP280;61985;51.070;14.064;2023-07-31T04:38:18;98333.88;;;14.78
73685;BMP280;61985;51.070;14.064;2023-07-31T04:40:43;98336.03;;;14.74
73685;BMP280;61985;51.070;14.064;2023-07-31T04:43:09;98319.47;;;14.72
73685;BMP280;61985;51.070;14.064;2023-07-31T04:45:34;98317.19;;;14.70
73685;BMP280;61985;51.070;14.064;2023-07-31T04:47:59;98320.56;;;14.65
73685;BMP280;61985;51.070;14.064;2023-07-31T04:50:24;98325.22;;;14.64
73685;BMP280;61985;51.070;14.064;2023-07-31T04:52:50;98314.38;;;14.64
73685;BMP280;61985;51.070;14.064;2023-07-31T04:55:15;98316.44;;;14.70
73685;BMP280;61985;51.070;14.064;2023-07-31T04:57:41;98316.56;;;14.75
73685;BMP280;61985;51.070;14.064;2023-07-31T05:00:07;98305.38;;;14.82
73685;BMP280;61985;51.070;14.064;2023-07-31T05:02:46;98299.38;;;14.78
73685;BMP280;61985;51.070;14.064;2023-07-31T05:05:14;98311.41;;;14.86
73685;BMP280;61985;51.070;14.064;2023-07-31T05:07:39;98308.31;;;14.94
73685;BMP280;61985;51.070;14.064;2023-07-31T05:10:08;98301.09;;;14.91
73685;BMP280;61985;51.070;14.064;2023-07-31T05:12:36;98303.34;;;14.92
73685;BMP280;61985;51.070;14.064;2023-07-31T05:15:03;98307.38;;;14.97
73685;BMP280;61985;51.070;14.064;2023-07-31T05:17:28;98298.03;;;14.98
73685;BMP280;61985;51.070;14.064;2023-07-31T05:19:53;98295.59;;;15.00
73685;BMP280;61985;51.070;14.064;2023-07-31T05:22:19;98298.31;;;15.00
73685;BMP280;61985;51.070;14.064;2023-07-31T05:24:44;98296.44;;;15.06
73685;BMP280;61985;51.070;14.064;2023-07-31T05:27:10;98290.13;;;15.09
73685;BMP280;61985;51.070;14.064;2023-07-31T05:29:35;98290.03;;;15.18
73685;BMP280;61985;51.070;14.064;2023-07-31T05:32:04;98285.81;;;15.17
73685;BMP280;61985;51.070;14.064;2023-07-31T05:34:29;98286.22;;;15.25
73685;BMP280;61985;51.070;14.064;2023-07-31T05:36:54;98285.44;;;15.24
73685;BMP280;61985;51.070;14.064;2023-07-31T05:39:20;98289.34;;;15.33
73685;BMP280;61985;51.070;14.064;2023-07-31T05:41:45;98287.53;;;15.29
73685;BMP280;61985;51.070;14.064;2023-07-31T05:44:11;98277.69;;;15.32
73685;BMP280;61985;51.070;14.064;2023-07-31T05:46:36;98285.09;;;15.32
73685;BMP280;61985;51.070;14.064;2023-07-31T05:49:02;98273.84;;;15.24
73685;BMP280;61985;51.070;14.064;2023-07-31T05:51:27;98279.09;;;15.27
73685;BMP280;61985;51.070;14.064;2023-07-31T05:53:53;98278.72;;;15.35
73685;BMP280;61985;51.070;14.064;2023-07-31T05:56:18;98283.25;;;15.38
73685;BMP280;61985;51.070;14.064;2023-07-31T06:01:58;98265.25;;;15.40
73685;BMP280;61985;51.070;14.064;2023-07-31T06:04:24;98271.25;;;15.44
73685;BMP280;61985;51.070;14.064;2023-07-31T06:06:56;98276.13;;;15.40
73685;BMP280;61985;51.070;14.064;2023-07-31T06:09:26;98269.66;;;15.38
73685;BMP280;61985;51.070;14.064;2023-07-31T06:11:52;98271.25;;;15.44
73685;BMP280;61985;51.070;14.064;2023-07-31T06:14:17;98268.53;;;15.44
73685;BMP280;61985;51.070;14.064;2023-07-31T06:16:44;98272.56;;;15.49
73685;BMP280;61985;51.070;14.064;2023-07-31T06:19:09;98273.34;;;15.49
73685;BMP280;61985;51.070;14.064;2023-07-31T06:21:38;98277.34;;;15.54
73685;BMP280;61985;51.070;14.064;2023-07-31T06:24:07;98268.44;;;15.54
73685;BMP280;61985;51.070;14.064;2023-07-31T06:26:33;98271.91;;;15.54
73685;BMP280;61985;51.070;14.064;2023-07-31T06:29:02;98264.22;;;15.53
73685;BMP280;61985;51.070;14.064;2023-07-31T06:41:47;98275.66;;;15.57
73685;BMP280;61985;51.070;14.064;2023-07-31T06:44:12;98278.84;;;15.55
73685;BMP280;61985;51.070;14.064;2023-07-31T06:46:37;98280.06;;;15.54
73685;BMP280;61985;51.070;14.064;2023-07-31T06:49:03;98267.88;;;15.64
73685;BMP280;61985;51.070;14.064;2023-07-31T06:54:05;98276.22;;;15.61
73685;BMP280;61985;51.070;14.064;2023-07-31T06:56:31;98276.69;;;15.59
73685;BMP280;61985;51.070;14.064;2023-07-31T06:58:57;98272.75;;;15.60
73685;BMP280;61985;51.070;14.064;2023-07-31T07:01:22;98282.56;;;15.58
73685;BMP280;61985;51.070;14.064;2023-07-31T07:03:53;98285.56;;;15.60
73685;BMP280;61985;51.070;14.064;2023-07-31T07:14:11;98275.66;;;15.72
73685;BMP280;61985;51.070;14.064;2023-07-31T07:19:11;98277.69;;;15.92
73685;BMP280;61985;51.070;14.064;2023-07-31T07:21:37;98288.16;;;15.99
73685;BMP280;61985;51.070;14.064;2023-07-31T07:24:03;98281.84;;;16.07
73685;BMP280;61985;51.070;14.064;2023-07-31T07:47:07;98271.75;;;16.64
73685;BMP280;61985;51.070;14.064;2023-07-31T07:49:34;98271.28;;;16.65
73685;BMP280;61985;51.070;14.064;2023-07-31T07:52:00;98263.59;;;16.64
73685;BMP280;61985;51.070;14.064;2023-07-31T07:54:25;98265.69;;;16.75
73685;BMP280;61985;51.070;14.064;2023-07-31T07:56:51;98266.69;;;16.77
73685;BMP280;61985;51.070;14.064;2023-07-31T07:59:17;98261.00;;;16.75
73685;BMP280;61985;51.070;14.064;2023-07-31T08:01:42;98266.19;;;16.79
73685;BMP280;61985;51.070;14.064;2023-07-31T08:04:08;98260.03;;;16.78
73685;BMP280;61985;51.070;14.064;2023-07-31T08:06:34;98273.63;;;16.78
73685;BMP280;61985;51.070;14.064;2023-07-31T08:08:59;98266.97;;;16.79
73685;BMP280;61985;51.070;14.064;2023-07-31T08:55:27;98263.84;;;18.90
73685;BMP280;61985;51.070;14.064;2023-07-31T08:57:54;98263.84;;;18.79
73685;BMP280;61985;51.070;14.064;2023-07-31T12:42:56;98118.53;;;20.84
73685;BMP280;61985;51.070;14.064;2023-07-31T12:45:25;98114.91;;;20.70
73685;BMP280;61985;51.070;14.064;2023-07-31T12:47:50;98107.22;;;20.68
73685;BMP280;61985;51.070;14.064;2023-07-31T12:50:16;98105.75;;;20.67
73685;BMP280;61985;51.070;14.064;2023-07-31T12:52:41;98095.06;;;20.64
73685;BMP280;61985;51.070;14.064;2023-07-31T12:55:07;98094.53;;;20.71
73685;BMP280;61985;51.070;14.064;2023-07-31T12:57:33;98090.19;;;21.06
73685;BMP280;61985;51.070;14.064;2023-07-31T13:00:08;98082.94;;;21.33
73685;BMP280;61985;51.070;14.064;2023-07-31T13:05:22;98081.06;;;21.60
73685;BMP280;61985;51.070;14.064;2023-07-31T13:25:52;98041.25;;;23.09
73685;BMP280;61985;51.070;14.064;2023-07-31T13:41:56;98021.97;;;22.29
73685;BMP280;61985;51.070;14.064;2023-07-31T13:44:24;98031.34;;;22.20
73685;BMP280;61985;51.070;14.064;2023-07-31T13:46:50;98023.59;;;22.06
73685;BMP280;61985;51.070;14.064;2023-07-31T13:52:12;98023.94;;;22.15
73685;BMP280;61985;51.070;14.064;2023-07-31T13:54:55;98020.91;;;22.19
73685;BMP280;61985;51.070;14.064;2023-07-31T14:11:04;98011.88;;;23.04
73685;BMP280;61985;51.070;14.064;2023-07-31T14:13:30;98013.56;;;22.80
73685;BMP280;61985;51.070;14.064;2023-07-31T14:15:56;98012.63;;;22.78
73685;BMP280;61985;51.070;14.064;2023-07-31T14:41:09;98005.94;;;22.33
73685;BMP280;61985;51.070;14.064;2023-07-31T14:44:18;97989.44;;;22.07
73685;BMP280;61985;51.070;14.064;2023-07-31T14:47:03;97983.25;;;21.87
73685;BMP280;61985;51.070;14.064;2023-07-31T14:49:59;97975.09;;;21.82
73685;BMP280;61985;51.070;14.064;2023-07-31T14:52:36;97981.25;;;21.88
73685;BMP280;61985;51.070;14.064;2023-07-31T14:55:05;97971.22;;;21.90
73685;BMP280;61985;51.070;14.064;2023-07-31T15:04:19;97969.84;;;22.42
73685;BMP280;61985;51.070;14.064;2023-07-31T16:27:33;97931.78;;;20.91
73685;BMP280;61985;51.070;14.064;2023-07-31T16:30:23;97932.81;;;20.88
73685;BMP280;61985;51.070;14.064;2023-07-31T16:35:29;97935.09;;;20.84
73685;BMP280;61985;51.070;14.064;2023-07-31T17:01:22;97951.63;;;20.72
73685;BMP280;61985;51.070;14.064;2023-07-31T17:11:46;97958.44;;;20.66
73685;BMP280;61985;51.070;14.064;2023-07-31T17:14:17;97946.28;;;20.61
73685;BMP280;61985;51.070;14.064;2023-07-31T17:17:25;97949.63;;;20.54
73685;BMP280;61985;51.070;14.064;2023-07-31T17:22:28;97957.06;;;20.54
73685;BMP280;61985;51.070;14.064;2023-07-31T17:24:53;97950.16;;;20.47
73685;BMP280;61985;51.070;14.064;2023-07-31T17:27:19;97954.16;;;20.46
73685;BMP280;61985;51.070;14.064;2023-07-31T17:29:44;97940.25;;;20.44
73685;BMP280;61985;51.070;14.064;2023-07-31T17:32:17;97946.22;;;20.42
73685;BMP280;61985;51.070;14.064;2023-07-31T17:34:45;97940.81;;;20.37
